createdAt,value
2023-03-12T00:00:10.460Z,51.52
2023-03-12T00:02:38.125Z,51.00
2023-03-12T00:05:06.537Z,51.16
2023-03-12T00:07:33.607Z,51.62
2023-03-12T00:10:00.579Z,50.86
2023-03-12T00:12:28.825Z,51.06
2023-03-12T00:14:55.711Z,50.63
2023-03-12T00:17:22.900Z,50.86
2023-03-12T00:19:52.628Z,51.25
2023-03-12T00:22:22.871Z,51.15
2023-03-12T00:24:52.140Z,51.54
2023-03-12T00:27:20.174Z,50.92
2023-03-12T00:29:48.869Z,51.17
2023-03-12T00:32:16.758Z,51.69
2023-03-12T00:34:43.966Z,50.99
2023-03-12T00:37:10.941Z,52.09
2023-03-12T00:39:37.839Z,51.28
2023-03-12T00:42:05.415Z,51.83
2023-03-12T00:44:32.417Z,51.14
2023-03-12T00:47:00.689Z,51.81
2023-03-12T00:49:27.694Z,52.08
2023-03-12T00:51:54.897Z,51.63
2023-03-12T00:54:22.224Z,51.16
2023-03-12T00:56:49.866Z,51.59
2023-03-12T00:59:17.091Z,51.34
2023-03-12T01:01:44.100Z,51.84
2023-03-12T01:04:12.461Z,51.50
2023-03-12T01:06:39.915Z,51.71
2023-03-12T01:09:09.250Z,52.16
2023-03-12T01:11:38.670Z,51.45
2023-03-12T01:14:09.101Z,51.55
2023-03-12T01:16:36.056Z,52.04
2023-03-12T01:19:04.118Z,52.63
2023-03-12T01:21:32.652Z,52.05
2023-03-12T01:23:59.641Z,51.90
2023-03-12T01:26:26.926Z,51.70
2023-03-12T01:28:54.000Z,52.13
2023-03-12T01:31:21.329Z,52.19
2023-03-12T01:33:50.434Z,51.92
2023-03-12T01:36:20.532Z,52.57
2023-03-12T01:38:51.243Z,53.05
2023-03-12T01:41:18.929Z,53.80
2023-03-12T01:43:46.421Z,52.92
2023-03-12T01:46:32.856Z,52.77
2023-03-12T01:49:08.822Z,52.93
2023-03-12T01:51:41.111Z,52.50
2023-03-12T01:54:15.496Z,52.42
2023-03-12T01:56:43.363Z,52.48
2023-03-12T01:59:16.960Z,53.63
2023-03-12T02:01:45.927Z,53.02
2023-03-12T02:04:16.041Z,53.19
2023-03-12T02:06:51.338Z,53.40
2023-03-12T02:09:21.636Z,52.74
2023-03-12T02:11:48.860Z,52.97
2023-03-12T02:14:16.221Z,52.36
2023-03-12T02:16:44.133Z,52.88
2023-03-12T02:19:23.469Z,53.00
2023-03-12T02:21:50.794Z,52.32
2023-03-12T02:24:30.783Z,52.47
2023-03-12T02:27:00.953Z,53.38
2023-03-12T02:29:33.037Z,53.05
2023-03-12T02:32:04.208Z,53.45
2023-03-12T02:34:31.273Z,53.67
2023-03-12T02:36:58.334Z,53.33
2023-03-12T02:39:25.265Z,53.22
2023-03-12T02:41:55.378Z,53.29
2023-03-12T02:44:26.676Z,53.09
2023-03-12T02:46:56.029Z,52.83
2023-03-12T02:49:26.629Z,53.65
2023-03-12T02:51:54.540Z,53.29
2023-03-12T02:54:22.751Z,53.40
2023-03-12T02:56:50.836Z,53.49
2023-03-12T02:59:21.666Z,53.49
2023-03-12T03:01:54.394Z,54.99
2023-03-12T03:04:21.514Z,54.84
2023-03-12T03:06:48.864Z,54.62
2023-03-12T03:09:16.463Z,54.42
2023-03-12T03:11:43.491Z,55.04
2023-03-12T03:14:10.548Z,55.79
2023-03-12T03:16:37.696Z,55.39
2023-03-12T03:19:06.743Z,55.79
2023-03-12T03:21:35.251Z,55.24
2023-03-12T03:24:02.142Z,56.15
2023-03-12T03:26:29.109Z,56.27
2023-03-12T03:28:56.227Z,55.85
2023-03-12T03:31:23.294Z,55.50
2023-03-12T03:33:50.865Z,55.82
2023-03-12T03:36:19.445Z,55.71
2023-03-12T03:38:49.305Z,56.40
2023-03-12T03:41:17.510Z,56.24
2023-03-12T03:43:45.000Z,56.40
2023-03-12T03:46:13.813Z,56.51
2023-03-12T03:48:41.566Z,55.79
2023-03-12T03:51:11.775Z,55.64
2023-03-12T03:53:40.276Z,56.50
2023-03-12T03:56:09.790Z,56.33
2023-03-12T03:58:37.041Z,55.86
2023-03-12T04:01:05.933Z,55.76
2023-03-12T04:03:34.194Z,56.33
2023-03-12T04:06:04.454Z,55.83
2023-03-12T04:08:32.921Z,56.33
2023-03-12T04:11:06.882Z,55.54
2023-03-12T04:13:33.842Z,55.12
2023-03-12T04:16:00.737Z,56.03
2023-03-12T04:18:27.614Z,55.44
2023-03-12T04:20:54.538Z,55.09
2023-03-12T04:23:21.447Z,54.39
2023-03-12T04:25:48.293Z,54.30
2023-03-12T04:28:16.545Z,55.20
2023-03-12T04:30:43.413Z,54.57
2023-03-12T04:33:10.446Z,55.28
2023-03-12T04:35:37.361Z,54.13
2023-03-12T04:38:04.403Z,55.00
2023-03-12T04:40:31.481Z,53.95
2023-03-12T04:42:58.362Z,53.78
2023-03-12T04:45:26.684Z,54.25
2023-03-12T04:47:53.726Z,54.37
2023-03-12T04:50:20.862Z,53.35
2023-03-12T04:52:47.813Z,53.58
2023-03-12T04:55:14.695Z,53.98
2023-03-12T04:57:41.670Z,53.56
2023-03-12T05:00:12.944Z,54.57
2023-03-12T05:02:41.740Z,53.49
2023-03-12T05:05:11.568Z,54.52
2023-03-12T05:07:38.484Z,54.33
2023-03-12T05:10:07.308Z,54.24
2023-03-12T05:12:34.281Z,54.08
2023-03-12T05:15:01.198Z,54.02
2023-03-12T05:17:28.247Z,54.10
2023-03-12T05:19:56.485Z,54.45
2023-03-12T05:22:23.362Z,53.52
2023-03-12T05:24:50.255Z,53.98
2023-03-12T05:27:17.465Z,54.03
2023-03-12T05:29:44.338Z,54.72
2023-03-12T05:32:11.227Z,54.33
2023-03-12T05:34:38.104Z,54.55
2023-03-12T05:37:06.337Z,54.38
2023-03-12T05:39:33.300Z,53.34
2023-03-12T05:42:00.434Z,53.63
2023-03-12T05:44:27.901Z,53.86
2023-03-12T05:46:56.162Z,54.32
2023-03-12T05:49:24.652Z,53.29
2023-03-12T05:51:51.699Z,53.67
2023-03-12T05:54:19.945Z,53.05
2023-03-12T05:56:46.888Z,52.98
2023-03-12T05:59:13.898Z,54.08
2023-03-12T06:01:41.432Z,53.51
2023-03-12T06:04:09.080Z,53.25
2023-03-12T06:06:37.853Z,52.74
2023-03-12T06:09:05.924Z,52.91
2023-03-12T06:11:35.254Z,53.37
2023-03-12T06:14:02.629Z,52.25
2023-03-12T06:16:30.067Z,52.80
2023-03-12T06:19:00.268Z,52.26
2023-03-12T06:21:30.623Z,52.53
2023-03-12T06:23:59.025Z,52.91
2023-03-12T06:26:26.998Z,51.93
2023-03-12T06:28:55.757Z,51.78
2023-03-12T06:31:23.807Z,51.91
2023-03-12T06:33:51.564Z,51.97
2023-03-12T06:36:18.581Z,51.72
2023-03-12T06:38:45.472Z,52.77
2023-03-12T06:41:16.297Z,52.50
2023-03-12T06:43:44.940Z,52.02
2023-03-12T06:46:16.569Z,51.75
2023-03-12T06:48:46.074Z,52.35
2023-03-12T06:51:15.306Z,50.96
2023-03-12T06:53:42.716Z,50.51
2023-03-12T06:56:10.699Z,50.88
2023-03-12T06:58:37.735Z,51.06
2023-03-12T07:01:05.748Z,51.34
2023-03-12T07:03:34.600Z,50.09
2023-03-12T07:06:02.011Z,50.36
2023-03-12T07:08:32.101Z,50.05
2023-03-12T07:11:03.291Z,50.07
2023-03-12T07:13:30.868Z,50.07
2023-03-12T07:15:58.111Z,49.56
2023-03-12T07:18:25.305Z,49.25
2023-03-12T07:20:53.777Z,49.99
2023-03-12T07:23:21.419Z,49.75
2023-03-12T07:25:48.413Z,49.27
2023-03-12T07:28:16.826Z,48.92
2023-03-12T07:30:50.050Z,47.97
2023-03-12T07:33:19.805Z,48.40
2023-03-12T07:35:50.977Z,48.16
2023-03-12T07:38:20.092Z,47.54
2023-03-12T07:40:51.537Z,47.61
2023-03-12T07:43:20.463Z,47.05
2023-03-12T07:45:48.749Z,46.69
2023-03-12T07:48:16.044Z,46.73
2023-03-12T07:50:43.258Z,46.75
2023-03-12T07:53:10.114Z,47.12
2023-03-12T07:55:38.552Z,47.31
2023-03-12T07:58:05.497Z,46.64
2023-03-12T08:00:32.845Z,46.74
2023-03-12T08:02:59.885Z,46.41
2023-03-12T08:05:27.043Z,45.76
2023-03-12T08:07:54.321Z,46.21
2023-03-12T08:10:22.834Z,46.36
2023-03-12T08:12:51.363Z,46.30
2023-03-12T08:15:18.485Z,46.26
2023-03-12T08:17:45.407Z,46.39
2023-03-12T08:20:13.707Z,46.47
2023-03-12T08:22:41.083Z,46.24
2023-03-12T08:25:09.663Z,46.02
2023-03-12T08:27:36.974Z,45.90
2023-03-12T08:30:07.009Z,45.01
2023-03-12T08:32:34.437Z,45.27
2023-03-12T08:35:01.583Z,44.52
2023-03-12T08:37:28.615Z,43.03
2023-03-12T08:39:55.705Z,43.39
2023-03-12T08:42:22.753Z,42.84
2023-03-12T08:44:49.654Z,42.69
2023-03-12T08:47:17.904Z,42.45
2023-03-12T08:49:44.901Z,42.37
2023-03-12T08:52:11.760Z,42.88
2023-03-12T08:54:38.663Z,42.78
2023-03-12T08:57:05.583Z,42.16
2023-03-12T08:59:32.479Z,42.42
2023-03-12T09:01:59.412Z,42.29
2023-03-12T09:04:27.696Z,41.40
2023-03-12T09:06:54.650Z,41.20
2023-03-12T09:09:21.565Z,41.00
2023-03-12T09:11:48.460Z,40.81
2023-03-12T09:14:57.509Z,41.15
2023-03-12T09:17:02.796Z,41.30
2023-03-12T09:19:31.141Z,40.96
2023-03-12T09:21:58.063Z,41.59
2023-03-12T09:24:25.047Z,40.75
2023-03-12T09:26:52.008Z,40.52
2023-03-12T09:29:18.858Z,40.16
2023-03-12T09:31:45.735Z,41.08
2023-03-12T09:34:12.618Z,40.97
2023-03-12T09:36:40.902Z,41.13
2023-03-12T09:39:07.978Z,41.00
2023-03-12T09:41:39.834Z,41.02
2023-03-12T09:44:19.349Z,41.01
2023-03-12T09:46:52.316Z,40.96
2023-03-12T09:49:38.167Z,40.08
2023-03-12T09:52:22.322Z,39.66
2023-03-12T09:55:02.444Z,40.26
2023-03-12T09:57:32.291Z,40.09
2023-03-12T10:00:00.149Z,39.94
2023-03-12T10:02:52.926Z,39.11
2023-03-12T10:05:31.862Z,39.67
2023-03-12T10:08:23.542Z,40.02
2023-03-12T10:10:58.823Z,39.62
2023-03-12T10:13:49.533Z,40.13
2023-03-12T10:16:49.102Z,39.31
2023-03-12T10:19:46.206Z,38.93
2023-03-12T10:22:31.946Z,38.86
2023-03-12T10:25:12.965Z,38.00
2023-03-12T10:27:41.713Z,38.54
2023-03-12T10:30:19.925Z,37.83
2023-03-12T10:32:50.493Z,38.28
2023-03-12T10:35:21.893Z,37.48
2023-03-12T10:37:53.457Z,37.46
2023-03-12T10:40:27.304Z,37.01
2023-03-12T10:42:55.436Z,36.98
2023-03-12T10:45:34.609Z,37.23
2023-03-12T10:48:07.063Z,37.33
2023-03-12T10:50:37.187Z,37.85
2023-03-12T10:53:20.532Z,38.15
2023-03-12T10:56:02.269Z,37.71
2023-03-12T10:58:35.782Z,38.62
2023-03-12T11:01:06.279Z,38.40
2023-03-12T11:03:33.949Z,38.74
2023-03-12T11:06:03.076Z,39.02
2023-03-12T11:08:33.963Z,40.11
2023-03-12T11:11:05.639Z,39.99
2023-03-12T11:13:35.684Z,40.75
2023-03-12T11:16:24.946Z,41.74
2023-03-12T11:18:57.111Z,42.67
2023-03-12T11:21:24.298Z,42.77
2023-03-12T11:24:08.973Z,44.62
2023-03-12T11:26:49.497Z,45.63
2023-03-12T11:29:32.878Z,46.00
2023-03-12T11:32:10.477Z,46.97
2023-03-12T11:34:39.742Z,47.96
2023-03-12T11:37:14.257Z,49.55
2023-03-12T11:40:09.787Z,51.22
2023-03-12T11:42:59.660Z,52.02
2023-03-12T11:45:40.075Z,53.42
2023-03-12T11:48:23.291Z,53.28
2023-03-12T11:51:13.544Z,54.59
2023-03-12T11:54:06.809Z,55.27
2023-03-12T11:56:40.402Z,56.03
2023-03-12T11:59:28.825Z,56.29
2023-03-12T12:02:21.317Z,56.35
2023-03-12T12:05:18.154Z,56.72
2023-03-12T12:08:03.905Z,56.64
2023-03-12T12:10:46.270Z,57.79
2023-03-12T12:13:25.422Z,57.76
2023-03-12T12:16:13.501Z,57.11
2023-03-12T12:19:04.457Z,57.43
2023-03-12T12:21:56.254Z,57.25
2023-03-12T12:24:41.285Z,56.84
2023-03-12T12:27:20.835Z,56.88
2023-03-12T12:30:14.624Z,58.15
2023-03-12T12:33:09.374Z,57.91
2023-03-12T12:35:40.271Z,58.61
2023-03-12T12:38:16.604Z,58.38
2023-03-12T12:40:51.321Z,58.54
2023-03-12T12:43:29.899Z,58.16
2023-03-12T12:46:02.099Z,58.77
2023-03-12T12:48:37.149Z,58.16
2023-03-12T12:51:08.925Z,58.15
2023-03-12T12:53:47.664Z,57.81
2023-03-12T12:56:28.120Z,58.20
2023-03-12T12:59:31.553Z,58.20
2023-03-12T13:02:02.132Z,58.81
2023-03-12T13:04:35.552Z,59.51
2023-03-12T13:07:27.518Z,59.68
2023-03-12T13:09:58.143Z,59.78
2023-03-12T13:12:31.227Z,59.61
2023-03-12T13:15:00.703Z,59.63
2023-03-12T13:17:35.492Z,59.48
2023-03-12T13:20:20.747Z,60.31
2023-03-12T13:23:09.574Z,60.89
2023-03-12T13:25:55.372Z,61.17
2023-03-12T13:29:09.746Z,61.63
2023-03-12T13:31:41.590Z,62.32
2023-03-12T13:34:47.587Z,62.61
2023-03-12T13:38:01.653Z,62.07
2023-03-12T13:41:06.217Z,62.79
2023-03-12T13:43:52.612Z,62.84
2023-03-12T13:46:39.078Z,62.84
2023-03-12T13:49:14.418Z,63.24
2023-03-12T13:51:57.757Z,63.15
2023-03-12T13:54:32.512Z,63.37
2023-03-12T13:57:09.950Z,63.33
2023-03-12T13:59:44.272Z,63.35
2023-03-12T14:02:24.378Z,63.20
2023-03-12T14:04:51.829Z,63.27
2023-03-12T14:07:49.610Z,63.13
2023-03-12T14:10:36.495Z,62.91
2023-03-12T14:13:24.650Z,62.82
2023-03-12T14:16:02.973Z,62.53
2023-03-12T14:18:34.384Z,62.65
2023-03-12T14:21:08.226Z,62.81
2023-03-12T14:23:39.381Z,63.20
2023-03-12T14:26:08.457Z,63.26
2023-03-12T14:28:41.971Z,63.30
2023-03-12T14:31:15.256Z,63.58
2023-03-12T14:33:54.762Z,63.27
2023-03-12T14:36:27.131Z,63.62
2023-03-12T14:39:12.556Z,63.51
2023-03-12T14:41:49.081Z,63.47
2023-03-12T14:44:24.046Z,63.68
2023-03-12T14:46:59.735Z,63.77
2023-03-12T14:49:27.503Z,63.87
2023-03-12T14:51:55.294Z,63.74
2023-03-12T14:54:26.437Z,64.06
2023-03-12T14:56:53.430Z,63.99
2023-03-12T14:59:29.252Z,63.51
2023-03-12T15:02:01.920Z,63.87
2023-03-12T15:04:33.312Z,63.96
2023-03-12T15:07:06.444Z,64.24
2023-03-12T15:09:36.530Z,64.06
2023-03-12T15:12:07.885Z,63.99
2023-03-12T15:14:42.211Z,64.43
2023-03-12T15:17:17.469Z,64.41
2023-03-12T15:19:45.453Z,64.65
2023-03-12T15:22:17.948Z,64.16
2023-03-12T15:24:45.328Z,64.55
2023-03-12T15:27:32.595Z,64.34
2023-03-12T15:30:01.943Z,64.08
2023-03-12T15:32:31.619Z,64.06
2023-03-12T15:34:59.789Z,64.10
2023-03-12T15:37:37.881Z,64.02
2023-03-12T15:40:19.685Z,64.39
2023-03-12T15:42:48.520Z,64.35
2023-03-12T15:45:23.133Z,64.32
2023-03-12T15:47:53.185Z,64.92
2023-03-12T15:50:28.893Z,64.09
2023-03-12T15:53:02.894Z,64.01
2023-03-12T15:55:31.519Z,64.21
2023-03-12T15:57:59.624Z,65.01
2023-03-12T16:00:30.588Z,64.53
2023-03-12T16:03:00.226Z,64.54
2023-03-12T16:05:31.397Z,64.45
2023-03-12T16:08:03.032Z,64.07
2023-03-12T16:10:39.733Z,63.58
2023-03-12T16:13:07.178Z,64.04
2023-03-12T16:15:38.871Z,63.78
2023-03-12T16:18:13.308Z,63.30
2023-03-12T16:20:40.803Z,63.95
2023-03-12T16:23:07.775Z,63.63
2023-03-12T16:25:35.888Z,63.62
2023-03-12T16:28:06.180Z,63.97
2023-03-12T16:30:36.890Z,63.64
2023-03-12T16:33:09.091Z,63.51
2023-03-12T16:35:36.436Z,63.30
2023-03-12T16:38:03.941Z,62.97
2023-03-12T16:40:35.503Z,63.25
2023-03-12T16:43:07.846Z,62.91
2023-03-12T16:45:37.477Z,63.04
2023-03-12T16:48:06.681Z,62.64
2023-03-12T16:50:33.797Z,63.61
2023-03-12T16:53:04.275Z,63.09
2023-03-12T16:55:46.360Z,64.12
2023-03-12T16:58:16.189Z,63.59
2023-03-12T17:00:45.491Z,63.71
2023-03-12T17:03:21.953Z,63.67
2023-03-12T17:05:48.944Z,63.19
2023-03-12T17:08:16.057Z,63.71
2023-03-12T17:10:43.595Z,62.98
2023-03-12T17:13:19.962Z,63.06
2023-03-12T17:15:48.767Z,63.90
2023-03-12T17:18:16.323Z,64.58
2023-03-12T17:20:43.561Z,63.85
2023-03-12T17:23:10.811Z,64.26
2023-03-12T17:25:40.723Z,64.00
2023-03-12T17:28:09.319Z,63.96
2023-03-12T17:30:37.187Z,63.44
2023-03-12T17:33:09.591Z,63.45
2023-03-12T17:35:37.007Z,63.80
2023-03-12T17:38:04.056Z,63.30
2023-03-12T17:40:31.411Z,63.52
2023-03-12T17:42:58.637Z,63.07
2023-03-12T17:45:25.822Z,63.41
2023-03-12T17:47:52.979Z,63.93
2023-03-12T17:50:21.513Z,63.50
2023-03-12T17:52:48.397Z,64.28
2023-03-12T17:55:15.392Z,63.56
2023-03-12T17:57:44.512Z,63.41
2023-03-12T18:00:13.362Z,63.59
2023-03-12T18:02:42.028Z,63.71
2023-03-12T18:05:11.390Z,63.26
2023-03-12T18:07:40.242Z,63.07
2023-03-12T18:10:13.796Z,63.38
2023-03-12T18:12:41.200Z,63.15
2023-03-12T18:15:12.992Z,63.29
2023-03-12T18:17:40.968Z,62.83
2023-03-12T18:20:12.513Z,63.04
2023-03-12T18:22:42.847Z,62.84
2023-03-12T18:25:11.963Z,63.02
2023-03-12T18:27:39.214Z,63.50
2023-03-12T18:30:11.273Z,63.52
2023-03-12T18:32:38.501Z,63.35
2023-03-12T18:35:07.542Z,63.15
2023-03-12T18:37:34.842Z,62.81
2023-03-12T18:40:05.256Z,63.17
2023-03-12T18:42:32.195Z,63.21
2023-03-12T18:44:59.072Z,62.60
2023-03-12T18:47:26.350Z,62.93
2023-03-12T18:49:55.065Z,62.93
2023-03-12T18:52:22.243Z,63.56
2023-03-12T18:54:49.191Z,63.30
2023-03-12T18:57:17.541Z,62.96
2023-03-12T18:59:45.962Z,62.88
2023-03-12T19:02:12.978Z,62.83
2023-03-12T19:04:40.025Z,63.06
2023-03-12T19:07:07.883Z,63.06
2023-03-12T19:09:35.105Z,63.07
2023-03-12T19:12:02.057Z,62.68
2023-03-12T19:14:31.355Z,62.50
2023-03-12T19:16:58.346Z,62.23
2023-03-12T19:19:25.242Z,62.42
2023-03-12T19:21:52.192Z,62.08
2023-03-12T19:24:20.026Z,62.05
2023-03-12T19:26:46.975Z,62.16
2023-03-12T19:29:15.087Z,62.10
2023-03-12T19:31:43.462Z,61.93
2023-03-12T19:34:10.442Z,61.51
2023-03-12T19:36:37.331Z,61.66
2023-03-12T19:39:12.005Z,62.03
2023-03-12T19:41:46.057Z,61.84
2023-03-12T19:44:13.234Z,61.96
2023-03-12T19:46:42.892Z,62.11
2023-03-12T19:49:11.156Z,62.38
2023-03-12T19:51:40.093Z,62.09
2023-03-12T19:54:07.258Z,62.18
2023-03-12T19:56:34.261Z,62.44
2023-03-12T19:59:01.151Z,62.15
2023-03-12T20:01:28.035Z,61.90
2023-03-12T20:03:55.404Z,62.19
2023-03-12T20:06:23.769Z,62.05
2023-03-12T20:08:50.755Z,62.27
2023-03-12T20:11:17.667Z,62.08
2023-03-12T20:13:45.987Z,62.11
2023-03-12T20:16:25.463Z,61.83
2023-03-12T20:18:52.733Z,61.97
2023-03-12T20:21:19.883Z,62.43
2023-03-12T20:23:48.111Z,62.77
2023-03-12T20:26:15.167Z,62.51
2023-03-12T20:28:42.276Z,62.84
2023-03-12T20:31:10.521Z,62.93
2023-03-12T20:33:37.878Z,62.69
2023-03-12T20:36:06.616Z,62.62
2023-03-12T20:38:34.065Z,62.57
2023-03-12T20:41:03.428Z,62.84
2023-03-12T20:43:33.143Z,62.91
2023-03-12T20:46:00.076Z,63.01
2023-03-12T20:48:27.000Z,63.35
2023-03-12T20:50:55.578Z,63.35
2023-03-12T20:53:22.627Z,63.96
2023-03-12T20:55:49.669Z,63.77
2023-03-12T20:58:17.969Z,64.00
2023-03-12T21:00:45.111Z,63.70
2023-03-12T21:03:13.862Z,63.62
2023-03-12T21:05:41.489Z,63.27
2023-03-12T21:08:08.636Z,63.42
2023-03-12T21:10:36.555Z,63.41
2023-03-12T21:13:04.208Z,63.02
2023-03-12T21:15:32.453Z,62.89
2023-03-12T21:17:59.289Z,63.08
2023-03-12T21:20:26.270Z,63.18
2023-03-12T21:22:53.186Z,62.67
2023-03-12T21:25:20.283Z,62.60
2023-03-12T21:27:50.859Z,62.39
2023-03-12T21:30:19.107Z,62.32
2023-03-12T21:32:47.385Z,62.17
2023-03-12T21:35:14.356Z,62.07
2023-03-12T21:37:41.251Z,62.21
2023-03-12T21:40:10.107Z,62.30
2023-03-12T21:42:36.976Z,62.02
2023-03-12T21:45:05.086Z,61.66
2023-03-12T21:47:32.492Z,61.65
2023-03-12T21:50:00.690Z,61.34
2023-03-12T21:52:27.827Z,61.30
2023-03-12T21:54:54.711Z,61.00
2023-03-12T21:57:21.643Z,61.14
2023-03-12T21:59:48.660Z,61.16
2023-03-12T22:02:16.051Z,60.51
2023-03-12T22:04:43.031Z,60.39
2023-03-12T22:07:11.307Z,60.16
2023-03-12T22:09:38.230Z,60.30
2023-03-12T22:12:05.663Z,60.43
2023-03-12T22:14:32.514Z,59.89
2023-03-12T22:16:59.387Z,60.00
2023-03-12T22:19:26.516Z,59.59
2023-03-12T22:21:53.419Z,59.54
2023-03-12T22:24:21.630Z,59.37
2023-03-12T22:26:48.530Z,59.54
2023-03-12T22:29:15.388Z,59.77
2023-03-12T22:31:42.378Z,59.70
2023-03-12T22:34:09.435Z,59.89
2023-03-12T22:36:38.595Z,59.75
2023-03-12T22:39:05.744Z,59.94
2023-03-12T22:41:34.079Z,60.06
2023-03-12T22:44:04.897Z,60.44
2023-03-12T22:46:32.385Z,60.17
2023-03-12T22:49:01.548Z,60.31
2023-03-12T22:51:30.925Z,60.07
2023-03-12T22:53:57.834Z,60.29
2023-03-12T22:56:25.531Z,60.23
2023-03-12T22:58:55.419Z,60.16
2023-03-12T23:01:23.808Z,60.04
2023-03-12T23:03:51.468Z,60.11
2023-03-12T23:06:21.272Z,59.84
2023-03-12T23:08:48.781Z,60.12
2023-03-12T23:11:17.806Z,60.23
2023-03-12T23:13:45.878Z,60.38
2023-03-12T23:16:17.668Z,60.30
2023-03-12T23:18:45.134Z,60.47
2023-03-12T23:21:15.433Z,60.24
2023-03-12T23:23:43.435Z,60.44
2023-03-12T23:26:15.570Z,60.10
2023-03-12T23:28:42.574Z,60.17
2023-03-12T23:31:10.689Z,60.17
2023-03-12T23:33:39.709Z,60.16
2023-03-12T23:36:11.217Z,59.99
2023-03-12T23:38:39.046Z,60.11
2023-03-12T23:41:08.735Z,60.21
2023-03-12T23:43:35.668Z,60.06
2023-03-12T23:46:05.339Z,60.25
2023-03-12T23:48:35.026Z,60.23
2023-03-12T23:51:15.987Z,60.01
2023-03-12T23:53:46.721Z,60.28
2023-03-12T23:56:16.569Z,60.04
2023-03-12T23:58:44.661Z,60.55
